Terminal Aerodrome Forecast
Issued by NWS

Home | Current Version | Previous Version | Graphics & Text | Print | Product List | Glossary On
Versions: 1 2 3 4 5 6 7 8 9 10 11 12 13 14 15 16 17 18 19 20 21 22 23 24
000
FTUS43 KFGF 160533 AAA
TAFBJI
TAF AMD
KBJI 160533Z 1606/1706 11007KT 3SM -SN OVC020
     FM160700 12007KT 2SM -SN OVC015
     FM160800 12007KT 3SM -SN OVC008
     FM161000 12008KT P6SM -SN OVC010
     FM162300 VRB03KT P6SM OVC008=

USA.gov is the U.S. government's official web portal to all federal, state and local government web resources and services.